Time;durP1;ratioP1;P1;durP2;ratioP2;P2;SDS_P1;SDS_P2;PMS_P1;PMS_P2;Temp;Humidity;BMP_temperature;BMP_pressure;BME280_temperature;BME280_humidity;BME280_pressure;Samples;Min_cycle;Max_cycle;Signal;HPM_P1;HPM_P2
2022/07/10 00:01:52;;;;;;;9.10;5.77;;;26.70;50.70;;;;;;5025415;28;20451;-45
2022/07/10 00:04:18;;;;;;;6.27;5.27;;;26.70;50.60;;;;;;5022826;28;20202;-46
2022/07/10 00:06:46;;;;;;;6.37;5.83;;;26.70;50.70;;;;;;5023663;28;20447;-46
2022/07/10 00:09:13;;;;;;;5.97;5.37;;;26.70;50.90;;;;;;5023765;28;20652;-46
2022/07/10 00:11:39;;;;;;;5.23;4.70;;;26.70;50.90;;;;;;5026199;28;20489;-46
2022/07/10 00:14:05;;;;;;;5.13;4.73;;;26.70;50.90;;;;;;5026307;28;20444;-47
2022/07/10 00:16:30;;;;;;;4.37;3.60;;;26.60;50.80;;;;;;5027109;28;20436;-47
2022/07/10 00:18:56;;;;;;;5.00;4.50;;;26.70;50.70;;;;;;5024914;28;20264;-46
2022/07/10 00:21:21;;;;;;;6.80;4.17;;;26.70;50.70;;;;;;5026763;28;20189;-48
2022/07/10 00:23:47;;;;;;;5.00;4.50;;;26.60;51.20;;;;;;5025581;28;20243;-46
2022/07/10 00:26:13;;;;;;;7.63;4.73;;;26.50;51.20;;;;;;5027244;28;20208;-47
2022/07/10 00:28:38;;;;;;;5.47;4.97;;;26.50;51.30;;;;;;5024426;28;20217;-48
2022/07/10 00:31:04;;;;;;;5.43;4.70;;;26.50;51.40;;;;;;5025989;28;20723;-46
2022/07/10 00:33:31;;;;;;;4.73;4.33;;;26.40;51.80;;;;;;5023648;28;20197;-47
2022/07/10 00:35:57;;;;;;;5.30;4.80;;;26.40;51.60;;;;;;5027659;28;20208;-46
2022/07/10 00:38:23;;;;;;;5.03;4.63;;;26.40;51.70;;;;;;5025252;28;20452;-48
2022/07/10 00:40:49;;;;;;;4.83;4.43;;;26.50;51.80;;;;;;5026212;28;20451;-46
2022/07/10 00:43:14;;;;;;;4.93;4.43;;;26.40;51.70;;;;;;5026363;28;20212;-47
2022/07/10 00:45:40;;;;;;;4.33;3.93;;;26.40;51.70;;;;;;5027722;28;20220;-46
2022/07/10 00:48:06;;;;;;;5.23;3.90;;;26.40;51.80;;;;;;5026733;28;20185;-47
2022/07/10 00:50:33;;;;;;;3.97;3.67;;;26.40;51.70;;;;;;5025850;28;20233;-46
2022/07/10 00:52:59;;;;;;;5.03;4.10;;;26.40;51.50;;;;;;5026540;28;20178;-46
2022/07/10 00:55:25;;;;;;;4.97;4.57;;;26.40;51.40;;;;;;5025825;28;20859;-49
2022/07/10 00:57:51;;;;;;;3.80;3.50;;;26.40;51.40;;;;;;5028027;28;20443;-46
2022/07/10 01:00:18;;;;;;;4.90;4.50;;;26.50;51.30;;;;;;5022161;28;20243;-46
2022/07/10 01:02:44;;;;;;;4.00;3.57;;;26.50;51.40;;;;;;5027384;28;20440;-48
2022/07/10 01:05:10;;;;;;;5.20;3.83;;;26.50;51.40;;;;;;5020934;28;20443;-46
2022/07/10 01:07:38;;;;;;;6.50;4.70;;;26.50;51.30;;;;;;5025845;28;20317;-46
2022/07/10 01:10:04;;;;;;;5.50;4.37;;;26.40;51.40;;;;;;5024187;28;20499;-46
2022/07/10 01:12:31;;;;;;;5.00;3.97;;;26.50;51.40;;;;;;5025512;28;20523;-47
2022/07/10 01:14:58;;;;;;;3.70;3.40;;;26.40;51.50;;;;;;5025018;28;20447;-46
2022/07/10 01:17:24;;;;;;;4.43;4.03;;;26.40;51.30;;;;;;5027916;28;20440;-48
2022/07/10 01:19:50;;;;;;;5.33;4.70;;;26.40;51.20;;;;;;5021588;28;20517;-46
2022/07/10 01:22:15;;;;;;;3.40;3.20;;;26.40;51.10;;;;;;5028009;28;20444;-45
2022/07/10 01:24:41;;;;;;;3.87;3.57;;;26.40;51.00;;;;;;5027461;28;20205;-50
2022/07/10 01:27:08;;;;;;;10.80;4.60;;;26.40;51.00;;;;;;5022520;28;20711;-48
2022/07/10 01:29:35;;;;;;;4.73;3.53;;;26.40;51.00;;;;;;5024931;28;20403;-45
2022/07/10 01:32:01;;;;;;;4.00;3.70;;;26.40;50.90;;;;;;5023155;28;20460;-46
2022/07/10 01:34:28;;;;;;;3.57;3.33;;;26.40;50.80;;;;;;5023298;28;20982;-45
2022/07/10 01:36:53;;;;;;;9.37;4.97;;;26.40;50.70;;;;;;5027951;28;20509;-47
2022/07/10 01:39:19;;;;;;;5.13;4.10;;;26.40;50.80;;;;;;5024359;28;20448;-45
2022/07/10 01:41:45;;;;;;;4.97;4.67;;;26.40;50.70;;;;;;5027867;28;20263;-48
2022/07/10 01:44:10;;;;;;;4.60;4.20;;;26.40;50.80;;;;;;5028283;28;20649;-45
2022/07/10 01:46:44;;;;;;;4.93;4.53;;;26.30;50.60;;;;;;5026421;28;20645;-45
2022/07/10 01:49:10;;;;;;;3.63;3.13;;;26.30;50.60;;;;;;5020686;28;20240;-50
2022/07/10 01:51:35;;;;;;;5.43;3.50;;;26.30;50.50;;;;;;5025852;28;20443;-48
2022/07/10 01:54:01;;;;;;;4.83;4.43;;;26.30;50.50;;;;;;5025840;28;20185;-49
2022/07/10 01:56:26;;;;;;;5.03;4.00;;;26.20;50.50;;;;;;5022589;28;20570;-46
2022/07/10 01:58:52;;;;;;;3.93;3.63;;;26.20;50.90;;;;;;5026873;28;20201;-46
2022/07/10 02:01:18;;;;;;;4.27;3.87;;;26.20;50.40;;;;;;5022914;28;20259;-47
2022/07/10 02:06:27;;;;;;;7.10;5.10;;;26.20;50.20;;;;;;5023733;28;20204;-48
2022/07/10 02:08:53;;;;;;;4.13;3.77;;;26.20;50.20;;;;;;5024063;28;20867;-46
2022/07/10 02:11:19;;;;;;;4.77;4.37;;;26.20;50.10;;;;;;5027675;28;20243;-46
2022/07/10 02:13:45;;;;;;;4.10;3.80;;;26.20;50.20;;;;;;5017643;28;20197;-46
2022/07/10 02:16:11;;;;;;;3.97;3.67;;;26.10;50.30;;;;;;5023231;28;20252;-46
2022/07/10 02:18:37;;;;;;;4.23;3.93;;;26.10;50.20;;;;;;5024812;28;20932;-46
2022/07/10 02:21:03;;;;;;;4.53;3.90;;;26.10;50.40;;;;;;5023195;28;20243;-50
2022/07/10 02:23:29;;;;;;;4.57;4.07;;;26.00;50.30;;;;;;5024403;28;20823;-45
2022/07/10 02:25:54;;;;;;;4.17;3.60;;;26.00;50.30;;;;;;5029590;28;20276;-46
2022/07/10 02:28:20;;;;;;;3.90;3.60;;;26.00;50.20;;;;;;5029918;28;20329;-49
2022/07/10 02:30:45;;;;;;;3.90;3.57;;;26.00;50.30;;;;;;5025947;28;20264;-46
2022/07/10 02:33:11;;;;;;;3.87;3.57;;;26.00;50.30;;;;;;5028983;28;20208;-46
2022/07/10 02:35:36;;;;;;;4.30;4.00;;;26.00;50.20;;;;;;5026627;28;20243;-47
2022/07/10 02:38:02;;;;;;;4.50;4.10;;;26.00;50.20;;;;;;5021765;28;20192;-46
2022/07/10 02:40:28;;;;;;;4.57;4.07;;;25.90;50.70;;;;;;5027419;28;20234;-47
2022/07/10 02:42:53;;;;;;;4.10;3.70;;;25.90;50.20;;;;;;5030577;28;20185;-45
2022/07/10 02:45:19;;;;;;;4.20;3.90;;;25.80;50.50;;;;;;5026606;28;20252;-46
2022/07/10 02:47:44;;;;;;;4.43;4.13;;;25.70;50.50;;;;;;5025904;28;20814;-47
2022/07/10 02:50:10;;;;;;;4.70;4.30;;;25.70;50.60;;;;;;5028002;28;20601;-46
2022/07/10 02:52:36;;;;;;;4.70;4.30;;;25.60;50.80;;;;;;5027669;28;20208;-47
2022/07/10 02:55:01;;;;;;;3.70;3.40;;;25.60;50.90;;;;;;5027021;28;20212;-46
2022/07/10 02:57:27;;;;;;;5.43;4.90;;;25.50;51.20;;;;;;5025511;28;20228;-46
2022/07/10 02:59:53;;;;;;;3.87;3.63;;;25.40;51.30;;;;;;5029426;28;20567;-45
2022/07/10 03:02:19;;;;;;;5.33;4.83;;;25.40;51.20;;;;;;5023191;28;20470;-49
2022/07/10 03:04:44;;;;;;;5.67;4.80;;;25.40;51.30;;;;;;5028376;28;20197;-46
2022/07/10 03:07:10;;;;;;;3.97;3.67;;;25.40;51.30;;;;;;5027320;28;20207;-47
2022/07/10 03:09:36;;;;;;;4.50;4.13;;;25.40;51.40;;;;;;5025024;28;20758;-47
2022/07/10 03:12:01;;;;;;;8.40;5.10;;;25.30;51.50;;;;;;5028517;28;20562;-47
2022/07/10 03:14:27;;;;;;;6.53;4.60;;;25.40;51.40;;;;;;5028516;28;20189;-45
2022/07/10 03:16:53;;;;;;;4.27;3.83;;;25.40;51.20;;;;;;5029678;28;20232;-46
2022/07/10 03:19:18;;;;;;;4.77;3.40;;;25.30;51.40;;;;;;5020714;28;20649;-45
2022/07/10 03:21:45;;;;;;;5.47;3.40;;;25.30;51.30;;;;;;5028622;28;20189;-45
2022/07/10 03:24:11;;;;;;;5.83;5.43;;;25.20;51.40;;;;;;5026460;28;21834;-46
2022/07/10 03:26:37;;;;;;;5.30;4.80;;;25.30;51.10;;;;;;5029236;28;20440;-46
2022/07/10 03:29:02;;;;;;;5.53;5.03;;;25.30;51.00;;;;;;5029011;28;20240;-46
2022/07/10 03:31:28;;;;;;;5.43;4.93;;;25.20;51.10;;;;;;5022565;28;20193;-46
2022/07/10 03:33:54;;;;;;;7.40;4.87;;;25.20;51.40;;;;;;5029467;28;20193;-46
2022/07/10 03:36:19;;;;;;;5.70;5.20;;;25.10;52.10;;;;;;5028738;28;20316;-46
2022/07/10 03:38:46;;;;;;;7.13;5.13;;;25.00;51.80;;;;;;5030092;28;20205;-47
2022/07/10 03:41:12;;;;;;;6.20;5.63;;;24.90;51.80;;;;;;5027182;28;20641;-47
2022/07/10 03:43:38;;;;;;;7.50;6.13;;;24.80;51.90;;;;;;5029920;28;20834;-46
2022/07/10 03:46:04;;;;;;;6.83;5.17;;;24.70;52.00;;;;;;5029244;28;20447;-45
2022/07/10 03:48:29;;;;;;;6.70;4.97;;;24.70;52.30;;;;;;5019468;28;20616;-46
2022/07/10 03:50:55;;;;;;;6.40;5.80;;;24.70;52.40;;;;;;5018945;28;20193;-49
2022/07/10 03:53:20;;;;;;;6.10;5.50;;;24.60;52.60;;;;;;5030113;28;20604;-45
2022/07/10 03:55:46;;;;;;;6.20;5.60;;;24.60;52.50;;;;;;5027592;28;20304;-45
2022/07/10 03:58:12;;;;;;;7.47;6.73;;;24.50;52.50;;;;;;5028966;28;20201;-46
2022/07/10 04:00:38;;;;;;;6.33;5.83;;;24.50;52.60;;;;;;5027511;28;20283;-47
2022/07/10 04:03:07;;;;;;;5.20;4.80;;;24.50;52.70;;;;;;5021367;28;20895;-47
2022/07/10 04:05:34;;;;;;;4.40;4.10;;;24.60;52.60;;;;;;5026171;28;20431;-46
2022/07/10 04:08:01;;;;;;;6.70;5.87;;;24.50;52.50;;;;;;5028352;28;20450;-46
2022/07/10 04:10:28;;;;;;;5.53;5.07;;;24.60;52.60;;;;;;5019406;28;20476;-48
2022/07/10 04:12:54;;;;;;;8.67;5.47;;;24.60;52.40;;;;;;5024200;28;20447;-45
2022/07/10 04:15:21;;;;;;;8.17;5.77;;;24.60;52.40;;;;;;5028331;28;20538;-46
2022/07/10 04:17:50;;;;;;;6.53;5.17;;;24.50;52.40;;;;;;5021960;28;20444;-46
2022/07/10 04:20:17;;;;;;;6.23;5.30;;;24.50;52.40;;;;;;5024778;28;21065;-46
2022/07/10 04:22:42;;;;;;;10.20;4.90;;;24.50;52.60;;;;;;5017934;28;20483;-45
2022/07/10 04:25:09;;;;;;;7.77;5.50;;;24.50;52.70;;;;;;5016639;28;21237;-48
2022/07/10 04:27:35;;;;;;;5.80;5.30;;;24.50;52.70;;;;;;5021457;28;20189;-47
2022/07/10 04:30:02;;;;;;;6.50;4.83;;;24.40;52.60;;;;;;5023365;28;20550;-47
2022/07/10 04:32:27;;;;;;;5.57;4.93;;;24.30;52.70;;;;;;5028720;28;20193;-45
2022/07/10 04:34:54;;;;;;;4.87;4.47;;;24.30;52.80;;;;;;5023763;28;20466;-45
2022/07/10 04:37:19;;;;;;;5.80;5.30;;;24.20;53.00;;;;;;5023678;28;20205;-46
2022/07/10 04:39:45;;;;;;;4.83;4.33;;;24.10;53.30;;;;;;5025841;28;20510;-45
2022/07/10 04:42:10;;;;;;;6.17;5.67;;;24.00;53.60;;;;;;5027554;28;20201;-46
2022/07/10 04:44:36;;;;;;;6.10;4.77;;;23.90;53.70;;;;;;5022296;28;20197;-47
2022/07/10 04:47:03;;;;;;;5.80;5.17;;;23.90;54.00;;;;;;5022204;28;20194;-46
2022/07/10 04:49:29;;;;;;;6.10;5.00;;;23.80;54.40;;;;;;5026736;28;20483;-47
2022/07/10 04:51:56;;;;;;;5.80;5.20;;;23.80;54.40;;;;;;5027987;28;20455;-46
2022/07/10 04:54:22;;;;;;;5.73;5.00;;;23.90;54.40;;;;;;5024546;28;20197;-50
2022/07/10 04:56:48;;;;;;;5.30;4.80;;;23.80;54.20;;;;;;5028649;28;20538;-47
2022/07/10 04:59:14;;;;;;;5.23;4.83;;;23.70;54.50;;;;;;5025072;28;20436;-46
2022/07/10 05:01:39;;;;;;;5.10;4.70;;;23.70;54.50;;;;;;5031384;28;20488;-45
2022/07/10 05:04:05;;;;;;;5.20;4.63;;;23.80;54.50;;;;;;5027718;28;20193;-47
2022/07/10 05:06:31;;;;;;;5.57;4.33;;;23.70;54.50;;;;;;5029777;28;20197;-46
2022/07/10 05:08:56;;;;;;;5.67;4.93;;;23.70;54.50;;;;;;5027713;28;20241;-45
2022/07/10 05:11:23;;;;;;;6.67;4.47;;;23.80;54.50;;;;;;5023557;28;20198;-48
2022/07/10 05:13:49;;;;;;;4.93;4.50;;;23.80;54.30;;;;;;5026759;28;20326;-46
2022/07/10 05:16:17;;;;;;;6.40;4.40;;;23.70;54.30;;;;;;5032946;28;20535;-45
2022/07/10 05:18:43;;;;;;;5.67;4.70;;;23.60;54.50;;;;;;5028552;28;20440;-45
2022/07/10 05:21:09;;;;;;;5.00;4.57;;;23.60;54.50;;;;;;5030467;28;20441;-45
2022/07/10 05:23:35;;;;;;;4.30;4.00;;;23.60;54.50;;;;;;5027803;28;20629;-47
2022/07/10 05:26:01;;;;;;;5.57;5.10;;;23.50;54.60;;;;;;5026580;28;20189;-48
2022/07/10 05:28:26;;;;;;;4.50;4.20;;;23.60;54.80;;;;;;5031404;28;20986;-45
2022/07/10 05:30:52;;;;;;;5.80;4.50;;;23.70;55.00;;;;;;5027838;28;20329;-45
2022/07/10 05:33:18;;;;;;;5.40;5.03;;;23.80;54.70;;;;;;5028429;28;20215;-46
2022/07/10 05:35:44;;;;;;;5.13;4.73;;;23.70;55.00;;;;;;5027188;28;20193;-45
2022/07/10 05:38:10;;;;;;;4.63;4.33;;;23.70;55.00;;;;;;5028186;28;20435;-45
2022/07/10 05:40:35;;;;;;;5.20;4.70;;;23.70;54.80;;;;;;5028083;28;20631;-46
2022/07/10 05:43:01;;;;;;;6.97;4.90;;;23.80;54.70;;;;;;5025865;28;20303;-45
2022/07/10 05:45:27;;;;;;;4.53;4.13;;;23.80;54.50;;;;;;5026658;28;20963;-45
2022/07/10 05:47:52;;;;;;;3.90;3.60;;;23.90;54.20;;;;;;5025568;28;20692;-47
2022/07/10 05:50:18;;;;;;;6.40;4.50;;;23.80;54.00;;;;;;5027576;28;20236;-46
2022/07/10 05:52:44;;;;;;;4.77;3.77;;;23.80;54.10;;;;;;5028378;28;20193;-45
2022/07/10 05:55:10;;;;;;;4.80;4.40;;;23.80;53.60;;;;;;5028127;28;20244;-45
2022/07/10 05:57:36;;;;;;;6.30;3.60;;;23.90;53.50;;;;;;5027931;28;20564;-46
2022/07/10 06:00:05;;;;;;;3.57;3.27;;;23.90;53.50;;;;;;5030876;28;20193;-45
2022/07/10 06:02:30;;;;;;;4.27;3.93;;;23.90;53.00;;;;;;5028559;28;20483;-46
2022/07/10 06:04:56;;;;;;;5.70;4.03;;;24.00;52.60;;;;;;5030028;28;20541;-46
2022/07/10 06:07:22;;;;;;;3.60;3.30;;;24.10;52.60;;;;;;5026336;28;20643;-46
2022/07/10 06:09:47;;;;;;;7.37;3.43;;;24.10;52.40;;;;;;5020551;28;20237;-46
2022/07/10 06:12:15;;;;;;;4.77;2.83;;;24.10;52.20;;;;;;5026606;28;20571;-46
2022/07/10 06:14:41;;;;;;;3.43;3.10;;;24.10;51.60;;;;;;5027417;28;20189;-46
2022/07/10 06:17:07;;;;;;;4.07;3.50;;;24.00;51.60;;;;;;5029581;28;20446;-51
2022/07/10 06:19:32;;;;;;;3.27;2.93;;;24.00;51.70;;;;;;5027586;28;20435;-46
2022/07/10 06:24:42;;;;;;;6.07;3.03;;;23.70;51.60;;;;;;5031914;28;20250;-46
2022/07/10 06:27:07;;;;;;;3.13;2.80;;;23.80;52.00;;;;;;5030206;28;20455;-47
2022/07/10 06:29:33;;;;;;;4.93;2.73;;;23.80;51.60;;;;;;5028945;28;20316;-45
2022/07/10 06:31:58;;;;;;;3.80;2.60;;;23.60;50.80;;;;;;5026166;28;20201;-46
2022/07/10 06:34:24;;;;;;;5.63;2.90;;;23.60;51.90;;;;;;5027272;28;20189;-46
2022/07/10 06:36:50;;;;;;;2.80;2.47;;;23.60;52.10;;;;;;5030618;28;20208;-46
2022/07/10 06:39:15;;;;;;;3.03;2.73;;;23.60;51.70;;;;;;5026615;28;20190;-46
2022/07/10 06:41:41;;;;;;;4.37;2.80;;;23.60;51.60;;;;;;5031638;28;20204;-47
2022/07/10 06:44:06;;;;;;;2.50;2.30;;;23.70;51.60;;;;;;5029562;28;20197;-46
2022/07/10 06:46:32;;;;;;;3.50;2.60;;;23.90;51.00;;;;;;5025855;28;20201;-46
2022/07/10 06:48:59;;;;;;;6.23;2.00;;;23.90;49.50;;;;;;5026681;28;20233;-47
2022/07/10 06:51:25;;;;;;;2.70;2.50;;;23.90;48.90;;;;;;5028019;28;20280;-46
2022/07/10 06:53:51;;;;;;;2.90;2.57;;;23.80;49.30;;;;;;5024419;28;20440;-48
2022/07/10 06:56:17;;;;;;;3.53;2.27;;;23.90;49.10;;;;;;5028498;28;20447;-48
2022/07/10 06:58:43;;;;;;;2.50;2.23;;;24.00;49.40;;;;;;5025115;28;20443;-46
2022/07/10 07:01:09;;;;;;;3.23;2.30;;;24.00;49.40;;;;;;5027210;28;20536;-45
2022/07/10 07:03:34;;;;;;;6.00;2.30;;;23.90;49.50;;;;;;5012748;28;20201;-48
2022/07/10 07:06:00;;;;;;;2.97;2.10;;;24.10;49.70;;;;;;5026330;28;20189;-47
2022/07/10 07:08:25;;;;;;;2.20;2.00;;;24.30;47.80;;;;;;5025276;28;20575;-46
2022/07/10 07:10:51;;;;;;;3.40;2.60;;;24.40;47.60;;;;;;5024176;28;20575;-46
2022/07/10 07:13:17;;;;;;;2.97;2.20;;;24.60;47.00;;;;;;5026786;28;20189;-47
2022/07/10 07:15:49;;;;;;;2.30;2.10;;;24.70;46.90;;;;;;5027113;28;20205;-45
2022/07/10 07:18:16;;;;;;;3.33;2.40;;;24.80;46.10;;;;;;5017351;28;20193;-46
2022/07/10 07:23:30;;;;;;;2.40;2.13;;;25.00;45.80;;;;;;5024045;28;20946;-47
2022/07/10 07:25:55;;;;;;;3.47;2.33;;;24.80;45.20;;;;;;5031816;28;20462;-49
2022/07/10 07:28:21;;;;;;;2.73;2.10;;;24.80;44.90;;;;;;5029013;28;20523;-49
2022/07/10 07:30:48;;;;;;;2.90;1.83;;;24.90;45.60;;;;;;5028691;28;20283;-48
2022/07/10 07:33:14;;;;;;;2.40;1.80;;;24.90;45.00;;;;;;5030104;28;20197;-47
2022/07/10 07:35:39;;;;;;;3.33;1.90;;;24.90;44.40;;;;;;5029720;28;20530;-46
2022/07/10 07:38:05;;;;;;;1.40;1.30;;;24.90;43.70;;;;;;5030870;28;20867;-47
2022/07/10 07:40:31;;;;;;;4.73;1.80;;;24.90;43.80;;;;;;5015995;28;20244;-46
2022/07/10 07:42:57;;;;;;;4.70;2.20;;;24.90;43.70;;;;;;5029271;28;20513;-47
2022/07/10 07:45:25;;;;;;;5.57;2.27;;;24.80;44.70;;;;;;5014538;28;20449;-47
2022/07/10 07:47:55;;;;;;;2.60;1.60;;;24.80;44.50;;;;;;5031201;28;21273;-45
2022/07/10 07:50:32;;;;;;;4.40;2.43;;;24.60;45.30;;;;;;5030497;28;20487;-49
2022/07/10 07:52:59;;;;;;;2.70;1.83;;;24.70;46.00;;;;;;5030228;28;20586;-49
2022/07/10 07:55:24;;;;;;;2.67;2.50;;;24.90;45.50;;;;;;5031521;28;20435;-46
2022/07/10 07:57:54;;;;;;;3.30;2.30;;;25.00;44.00;;;;;;5030509;28;20419;-49
2022/07/10 08:00:22;;;;;;;3.47;2.40;;;24.90;44.50;;;;;;5023366;28;20225;-48
2022/07/10 08:02:49;;;;;;;2.10;1.90;;;25.00;44.60;;;;;;5029513;28;20432;-48
2022/07/10 08:05:15;;;;;;;2.70;2.00;;;25.00;43.90;;;;;;5021173;28;20483;-49
2022/07/10 08:07:46;;;;;;;3.83;2.00;;;25.00;43.50;;;;;;5030305;28;20767;-50
2022/07/10 08:10:15;;;;;;;2.43;1.80;;;25.00;44.20;;;;;;5028178;28;20510;-50
2022/07/10 08:12:41;;;;;;;2.10;1.90;;;25.00;44.50;;;;;;5029948;28;20443;-46
2022/07/10 08:15:08;;;;;;;2.30;1.40;;;25.10;44.90;;;;;;5030366;28;20557;-48
2022/07/10 08:17:34;;;;;;;1.97;1.77;;;25.10;43.80;;;;;;5019392;28;20448;-46
2022/07/10 08:19:59;;;;;;;3.60;2.00;;;25.20;43.10;;;;;;5021303;28;20437;-46
2022/07/10 08:22:25;;;;;;;4.10;1.70;;;25.40;42.70;;;;;;5026164;28;20197;-46
2022/07/10 08:24:51;;;;;;;3.37;1.83;;;25.40;43.00;;;;;;5022109;28;20189;-46
2022/07/10 08:27:17;;;;;;;1.90;1.63;;;25.50;42.20;;;;;;5022108;28;20552;-50
2022/07/10 08:29:42;;;;;;;2.50;1.67;;;25.50;43.30;;;;;;5011801;28;20221;-46
2022/07/10 08:32:09;;;;;;;2.87;1.80;;;25.30;43.90;;;;;;5025465;28;20196;-48
2022/07/10 08:34:35;;;;;;;4.80;2.10;;;25.40;44.10;;;;;;5025403;28;20228;-50
2022/07/10 08:37:01;;;;;;;2.30;1.53;;;25.50;44.20;;;;;;5025202;28;20444;-47
2022/07/10 08:39:27;;;;;;;2.50;2.10;;;25.70;43.50;;;;;;5019439;28;20451;-47
2022/07/10 08:41:53;;;;;;;2.10;1.90;;;25.90;42.70;;;;;;5022999;28;20207;-51
2022/07/10 08:44:18;;;;;;;4.67;2.07;;;25.80;41.30;;;;;;5022694;28;20204;-47
2022/07/10 08:46:45;;;;;;;2.80;1.53;;;25.80;40.60;;;;;;5026746;28;20224;-49
2022/07/10 08:49:11;;;;;;;2.77;1.93;;;26.00;41.30;;;;;;5029107;28;20228;-48
2022/07/10 08:51:44;;;;;;;2.93;2.10;;;26.10;40.60;;;;;;5028261;28;20471;-48
2022/07/10 08:54:15;;;;;;;3.23;1.73;;;26.20;39.50;;;;;;5028680;28;20446;-50
2022/07/10 08:56:41;;;;;;;1.87;1.77;;;26.10;39.60;;;;;;5027899;28;20448;-47
2022/07/10 08:59:08;;;;;;;2.23;1.67;;;26.00;40.10;;;;;;5023287;28;20455;-46
2022/07/10 09:01:33;;;;;;;3.13;1.90;;;26.00;40.60;;;;;;5027820;28;20197;-50
2022/07/10 09:03:59;;;;;;;2.30;1.93;;;26.10;41.30;;;;;;5021108;28;20462;-47
2022/07/10 09:06:27;;;;;;;3.20;1.87;;;26.10;42.60;;;;;;5029545;28;20197;-45
2022/07/10 09:09:00;;;;;;;1.60;1.50;;;26.20;42.50;;;;;;5026730;28;20245;-45
2022/07/10 09:11:28;;;;;;;5.43;2.07;;;26.20;41.90;;;;;;5027645;28;20452;-47
2022/07/10 09:13:57;;;;;;;4.87;2.43;;;26.30;41.20;;;;;;5030853;28;20820;-46
2022/07/10 09:16:24;;;;;;;2.60;1.70;;;26.20;40.80;;;;;;5022698;28;20459;-50
2022/07/10 09:18:50;;;;;;;2.53;1.77;;;26.30;39.30;;;;;;5026575;28;20451;-46
2022/07/10 09:21:16;;;;;;;1.80;1.70;;;26.40;39.10;;;;;;5026002;28;20450;-49
2022/07/10 09:23:41;;;;;;;2.97;1.60;;;26.50;38.90;;;;;;5021634;28;20216;-48
2022/07/10 09:26:07;;;;;;;4.53;2.00;;;26.70;38.70;;;;;;5026728;28;20324;-51
2022/07/10 09:28:33;;;;;;;3.03;1.67;;;26.90;39.80;;;;;;5027427;28;20201;-46
2022/07/10 09:30:58;;;;;;;4.87;1.90;;;26.90;39.70;;;;;;5027210;28;20656;-46
2022/07/10 09:33:30;;;;;;;2.83;1.90;;;26.90;38.90;;;;;;5024904;28;20220;-49
2022/07/10 09:38:53;;;;;;;3.53;1.83;;;26.80;38.10;;;;;;5013316;28;20452;-46
2022/07/10 09:41:26;;;;;;;4.90;1.80;;;26.80;37.90;;;;;;5026896;28;20535;-48
2022/07/10 09:43:57;;;;;;;3.10;1.70;;;27.00;38.30;;;;;;5026506;28;20476;-49
2022/07/10 09:46:35;;;;;;;2.03;1.70;;;27.10;37.40;;;;;;5029155;28;20506;-47
2022/07/10 09:49:08;;;;;;;3.60;1.80;;;27.00;36.50;;;;;;5019010;28;20479;-48
2022/07/10 09:51:38;;;;;;;1.73;1.23;;;27.10;36.30;;;;;;5024528;28;20452;-47
2022/07/10 09:54:06;;;;;;;1.97;1.83;;;27.20;35.80;;;;;;5023236;28;21214;-52
2022/07/10 09:56:53;;;;;;;2.33;1.70;;;27.20;35.40;;;;;;5024331;28;20832;-46
2022/07/10 09:59:26;;;;;;;1.63;1.30;;;27.20;36.00;;;;;;5028610;28;21037;-47
2022/07/10 10:01:56;;;;;;;2.90;1.30;;;27.20;36.10;;;;;;5020757;28;20448;-48
2022/07/10 10:04:26;;;;;;;1.70;1.40;;;27.30;35.60;;;;;;5021688;28;20516;-50
2022/07/10 10:07:13;;;;;;;1.97;1.43;;;27.40;36.10;;;;;;5018670;28;20458;-50
2022/07/10 10:09:53;;;;;;;2.77;1.80;;;27.40;34.70;;;;;;5026454;28;20491;-50
2022/07/10 10:12:50;;;;;;;2.70;1.40;;;27.60;35.20;;;;;;5024669;28;20534;-51
2022/07/10 10:15:17;;;;;;;1.57;1.30;;;27.60;36.20;;;;;;5025685;28;20436;-51
2022/07/10 10:18:04;;;;;;;2.20;1.20;;;27.70;35.00;;;;;;5023464;28;20437;-49
2022/07/10 10:20:41;;;;;;;1.63;1.33;;;27.80;34.70;;;;;;5019494;28;20462;-48
2022/07/10 10:23:12;;;;;;;2.90;1.40;;;27.90;34.60;;;;;;5024074;28;20815;-47
2022/07/10 10:25:39;;;;;;;1.87;1.30;;;27.80;34.30;;;;;;5025209;28;20432;-51
2022/07/10 10:28:08;;;;;;;2.23;1.40;;;27.90;34.40;;;;;;5025707;28;20471;-49
2022/07/10 10:31:02;;;;;;;1.80;1.60;;;28.10;34.40;;;;;;5026782;28;20844;-51
2022/07/10 10:33:34;;;;;;;2.50;1.50;;;28.10;32.90;;;;;;5024135;28;20443;-52
2022/07/10 10:36:05;;;;;;;1.90;1.33;;;28.20;33.20;;;;;;5024093;28;20447;-52
2022/07/10 10:39:16;;;;;;;2.27;1.70;;;28.30;33.50;;;;;;5023600;28;20457;-51
2022/07/10 10:41:59;;;;;;;3.40;1.60;;;28.30;33.20;;;;;;5024541;28;20471;-50
2022/07/10 10:44:27;;;;;;;2.67;1.53;;;28.40;33.60;;;;;;5025556;28;20459;-53
2022/07/10 10:47:10;;;;;;;2.70;1.80;;;28.40;33.20;;;;;;5025524;28;20478;-52
2022/07/10 10:49:59;;;;;;;3.97;1.40;;;28.40;32.70;;;;;;5024475;28;20486;-50
2022/07/10 10:52:28;;;;;;;1.57;1.30;;;28.20;32.80;;;;;;5024086;28;20432;-48
2022/07/10 10:55:01;;;;;;;3.27;1.90;;;28.20;32.60;;;;;;5028152;28;20857;-48
2022/07/10 10:57:37;;;;;;;1.10;1.00;;;28.40;34.20;;;;;;5026720;28;20450;-46
2022/07/10 11:00:16;;;;;;;1.83;1.20;;;28.60;34.40;;;;;;5025019;28;20455;-50
2022/07/10 11:02:42;;;;;;;2.20;1.40;;;28.80;34.60;;;;;;5019498;28;20539;-49
2022/07/10 11:05:11;;;;;;;4.83;1.37;;;29.00;33.80;;;;;;5025758;28;20876;-51
2022/07/10 11:07:56;;;;;;;1.30;1.20;;;29.20;34.20;;;;;;5021573;28;20224;-47
2022/07/10 11:10:34;;;;;;;1.80;1.30;;;29.60;32.50;;;;;;5029990;28;20496;-51
2022/07/10 11:13:14;;;;;;;1.43;1.33;;;29.70;31.70;;;;;;5029819;28;20455;-50
2022/07/10 11:15:48;;;;;;;2.30;1.77;;;29.60;31.30;;;;;;5030736;28;20451;-47
2022/07/10 11:18:16;;;;;;;1.67;1.47;;;29.50;30.80;;;;;;5028142;28;20930;-52
2022/07/10 11:20:49;;;;;;;5.03;1.20;;;29.60;32.50;;;;;;5030186;28;20463;-51
2022/07/10 11:23:49;;;;;;;2.53;1.50;;;29.70;32.10;;;;;;5030338;28;20535;-48
2022/07/10 11:26:44;;;;;;;2.30;1.50;;;29.80;31.10;;;;;;5030569;28;20483;-51
2022/07/10 11:29:10;;;;;;;2.33;1.30;;;29.80;31.40;;;;;;5026513;28;20467;-50
2022/07/10 11:31:44;;;;;;;1.40;1.30;;;29.90;31.60;;;;;;5024738;28;20808;-48
2022/07/10 11:34:10;;;;;;;1.87;1.47;;;29.90;31.10;;;;;;5029751;28;20664;-46
2022/07/10 11:36:38;;;;;;;1.67;1.50;;;29.80;30.70;;;;;;5030500;28;20470;-46
2022/07/10 11:39:06;;;;;;;2.63;1.47;;;29.70;31.50;;;;;;5029422;28;20451;-46
2022/07/10 11:41:44;;;;;;;2.00;1.47;;;29.70;32.00;;;;;;5029187;28;20528;-47
2022/07/10 11:44:18;;;;;;;1.37;1.27;;;30.00;32.20;;;;;;5024860;28;20807;-50
2022/07/10 11:46:46;;;;;;;1.53;1.33;;;30.00;32.90;;;;;;5028239;28;20458;-47
2022/07/10 11:49:18;;;;;;;1.37;1.27;;;30.00;32.00;;;;;;5030029;28;20487;-49
2022/07/10 11:51:44;;;;;;;2.50;1.40;;;30.30;31.30;;;;;;5028077;28;20445;-51
2022/07/10 11:54:16;;;;;;;2.47;1.33;;;30.40;31.40;;;;;;5029412;28;20455;-50
2022/07/10 11:56:47;;;;;;;2.97;1.40;;;30.60;31.90;;;;;;5029557;28;20432;-52
2022/07/10 11:59:14;;;;;;;3.40;1.50;;;30.80;30.40;;;;;;5027828;28;20484;-50
2022/07/10 12:01:43;;;;;;;1.30;1.20;;;30.80;30.00;;;;;;5025998;28;20847;-51
2022/07/10 12:04:09;;;;;;;1.57;1.47;;;30.80;28.90;;;;;;5035859;28;20529;-51
2022/07/10 12:06:44;;;;;;;4.40;1.57;;;30.70;30.00;;;;;;5018431;28;20545;-50
2022/07/10 12:09:14;;;;;;;6.67;1.60;;;30.60;30.50;;;;;;5024471;28;20490;-51
2022/07/10 12:11:42;;;;;;;1.23;1.13;;;30.40;30.90;;;;;;5025231;28;20440;-51
2022/07/10 12:14:18;;;;;;;2.07;1.60;;;30.20;30.30;;;;;;5020287;28;20472;-52
2022/07/10 12:16:46;;;;;;;2.90;1.63;;;30.20;30.70;;;;;;5026290;28;20448;-50
2022/07/10 12:19:14;;;;;;;2.73;1.43;;;30.10;30.60;;;;;;5025722;28;20454;-47
2022/07/10 12:21:49;;;;;;;2.00;1.40;;;30.10;31.20;;;;;;5028999;28;20960;-47
2022/07/10 12:24:23;;;;;;;2.13;1.40;;;30.00;30.00;;;;;;5016458;28;20439;-50
2022/07/10 12:26:49;;;;;;;1.43;1.33;;;29.70;30.00;;;;;;5024678;28;20446;-50
2022/07/10 12:29:22;;;;;;;2.67;1.30;;;29.70;30.30;;;;;;5030979;28;20470;-52
2022/07/10 12:31:54;;;;;;;3.73;1.90;;;29.70;32.00;;;;;;5016847;28;20459;-49
2022/07/10 12:34:39;;;;;;;1.97;1.40;;;29.70;32.00;;;;;;5019685;28;20459;-49
2022/07/10 12:37:13;;;;;;;2.10;1.33;;;29.70;30.20;;;;;;5026035;28;20444;-51
2022/07/10 12:39:47;;;;;;;1.93;1.17;;;29.80;31.70;;;;;;5027234;28;20460;-49
2022/07/10 12:42:14;;;;;;;1.53;1.20;;;29.80;31.40;;;;;;5027460;28;20453;-50
2022/07/10 12:44:47;;;;;;;2.40;1.30;;;29.90;32.10;;;;;;5026520;28;20501;-50
2022/07/10 12:47:17;;;;;;;4.03;2.03;;;29.70;32.10;;;;;;5026235;28;20448;-49
2022/07/10 12:49:58;;;;;;;1.70;1.43;;;29.70;32.20;;;;;;5024862;28;20993;-50
2022/07/10 12:52:27;;;;;;;2.40;1.10;;;29.80;32.90;;;;;;5024130;28;20533;-50
2022/07/10 12:55:31;;;;;;;1.53;1.30;;;30.00;31.50;;;;;;5028310;28;20451;-49
2022/07/10 12:57:58;;;;;;;1.50;1.40;;;30.20;30.80;;;;;;5027462;28;20466;-46
2022/07/10 13:00:48;;;;;;;2.77;1.10;;;30.30;30.10;;;;;;5027585;28;20490;-47
2022/07/10 13:03:54;;;;;;;2.33;1.40;;;30.50;29.80;;;;;;5018933;28;20502;-50
2022/07/10 13:06:46;;;;;;;1.37;1.17;;;30.50;30.80;;;;;;5023625;28;20451;-46